Santa Paula, CA

7:27 PM PST on February 08, 2016 (GMT -0800)
APRSWXNET | | Change Station
CLOSE
Current Station
Personal Weather Station
Location: Santa Paula, CA
Elevation: 2350 ft
Nearby Weather Stations
Active Advisory: Wind Advisory Active Notice: Record Report, Public Information Statement

Elev 2350 ft 34.33 °N, 119.03 °W | Updated 54 minutes ago

Clear
Clear
70 °F
Feels Like 70 °F
N
32
Wind Variable Wind from NNE
Gusts 48.0 mph

Today
High -- | Low -- °F
--% Chance of Precip.
Yesterday
High -- | Low -- °F
Precip. -- in
Pressure 30.11 in
Visibility 10.0 miles
Clouds Clear
Dew Point 27 °F
Humidity 20%
Rainfall in
Snow Depth Not available.
6:48 AM 5:32 PM
New Moon, 0% visible
METAR KCMA 090255Z 07014KT 10SM CLR 26/M06 A3009 RMK AO2 SLP196 T02561061 50003 $
Pressure 30.11 in
Visibility 10.0 miles
Clouds Clear
Dew Point 27 °F
Humidity 20%
Rainfall in
Snow Depth Not available.
6:48 AM 5:32 PM
New Moon, 0% visible
METAR KCMA 090255Z 07014KT 10SM CLR 26/M06 A3009 RMK AO2 SLP196 T02561061 50003 $

10-Day Weather Forecast

Almanac

Astronomy

Feb. 08, 2016 Rise Set
Actual Time
Civil Twilight
Nautical Twilight
Astronomical Twilight
Moon
Length of Visible Light
Length of Day
Tomorrow will be .
, % of the Moon is Illuminated

Today's Extremes

State Highs State Lows

Community

WunderPhotos

Upload Photos

1,891,527 photos uploaded!

WunderBlog® & News

Nearby

Air Quality

  Air Quality AQ Index Pollutant
Not available.

Snow Depth

Station Depth Elevation

Earthquake Activity

City Distance Mag. Time & Date
Minimum magnitude displayed is 2.5.

Coastal Water Temperatures

Place Temperature

Stations

Nearby Weather Stations

Station Location Temp. Windchill Dew Point Humidity Wind Precip. Elev Updated Type
                   

Watches & Warnings

Wind Advisory
Issued: 5:37 PM PST Feb. 8, 2016 – National Weather Service

... Wind Advisory remains in effect until 3 PM PST Tuesday...

* winds and timing... northeast winds 15 to 25 mph with gusts 35
mph will prevail through Tuesday afternoon.

* Impacts... gusty winds will make driving difficult... especially
for drivers of high profile vehicles. Winds this strong will
be capable of causing downed trees and cause power outages.

Precautionary/preparedness actions...

When driving... use extra caution. Be prepared for sudden gusty
cross winds and watch for potential downed trees.